sensor_id;sensor_type;location;lat;lon;timestamp;noise_LAeq;noise_LA_min;noise_LA_max;noise_LA01;noise_LA95
186;Laerm;55473;48.800;9.002;2024-03-02T00:00:22;39.54;35.45;45.59;;
186;Laerm;55473;48.800;9.002;2024-03-02T00:02:50;38.34;35.48;45.37;;
186;Laerm;55473;48.800;9.002;2024-03-02T00:05:21;39.05;35.23;49.07;;
186;Laerm;55473;48.800;9.002;2024-03-02T00:07:57;40.51;35.02;46.29;;
186;Laerm;55473;48.800;9.002;2024-03-02T00:10:45;39.07;35.01;47.19;;
186;Laerm;55473;48.800;9.002;2024-03-02T00:13:12;41.67;36.32;54.91;;
186;Laerm;55473;48.800;9.002;2024-03-02T00:15:48;42.70;36.18;54.76;;
186;Laerm;55473;48.800;9.002;2024-03-02T00:18:33;45.93;36.13;59.13;;
186;Laerm;55473;48.800;9.002;2024-03-02T00:21:01;38.41;35.46;46.22;;
186;Laerm;55473;48.800;9.002;2024-03-02T00:23:30;38.81;35.21;43.64;;
186;Laerm;55473;48.800;9.002;2024-03-02T00:25:57;39.58;35.80;52.85;;
186;Laerm;55473;48.800;9.002;2024-03-02T00:31:02;38.84;35.74;44.64;;
186;Laerm;55473;48.800;9.002;2024-03-02T00:33:47;40.00;36.28;51.54;;
186;Laerm;55473;48.800;9.002;2024-03-02T00:36:18;39.45;35.91;46.16;;
186;Laerm;55473;48.800;9.002;2024-03-02T00:38:53;40.21;36.30;47.76;;
186;Laerm;55473;48.800;9.002;2024-03-02T00:41:31;39.45;36.11;44.81;;
186;Laerm;55473;48.800;9.002;2024-03-02T00:44:07;43.40;36.33;55.28;;
186;Laerm;55473;48.800;9.002;2024-03-02T00:46:40;40.94;36.22;54.30;;
186;Laerm;55473;48.800;9.002;2024-03-02T00:49:21;41.10;36.56;48.98;;
186;Laerm;55473;48.800;9.002;2024-03-02T00:51:49;40.54;36.48;47.76;;
186;Laerm;55473;48.800;9.002;2024-03-02T00:54:22;38.52;35.94;45.31;;
186;Laerm;55473;48.800;9.002;2024-03-02T00:56:51;38.41;35.56;45.56;;
186;Laerm;55473;48.800;9.002;2024-03-02T00:59:17;39.11;36.06;45.29;;
186;Laerm;55473;48.800;9.002;2024-03-02T01:01:43;38.39;35.83;49.48;;
186;Laerm;55473;48.800;9.002;2024-03-02T01:04:09;38.71;35.79;45.32;;
186;Laerm;55473;48.800;9.002;2024-03-02T01:06:35;39.03;35.79;45.24;;
186;Laerm;55473;48.800;9.002;2024-03-02T01:09:02;39.37;36.05;52.79;;
186;Laerm;55473;48.800;9.002;2024-03-02T01:11:28;38.67;36.12;44.91;;
186;Laerm;55473;48.800;9.002;2024-03-02T01:13:55;38.75;36.29;48.31;;
186;Laerm;55473;48.800;9.002;2024-03-02T01:16:21;39.15;36.10;46.64;;
186;Laerm;55473;48.800;9.002;2024-03-02T01:18:47;45.83;35.98;58.02;;
186;Laerm;55473;48.800;9.002;2024-03-02T01:21:13;38.31;35.87;44.56;;
186;Laerm;55473;48.800;9.002;2024-03-02T01:23:39;38.99;35.31;44.36;;
186;Laerm;55473;48.800;9.002;2024-03-02T01:26:11;38.37;35.61;43.85;;
186;Laerm;55473;48.800;9.002;2024-03-02T01:28:37;52.13;35.68;84.92;;
186;Laerm;55473;48.800;9.002;2024-03-02T01:31:03;38.82;35.48;46.30;;
186;Laerm;55473;48.800;9.002;2024-03-02T01:33:29;37.95;35.36;44.65;;
186;Laerm;55473;48.800;9.002;2024-03-02T01:35:55;38.72;35.73;44.72;;
186;Laerm;55473;48.800;9.002;2024-03-02T01:38:21;40.24;36.06;47.43;;
186;Laerm;55473;48.800;9.002;2024-03-02T01:40:50;39.25;35.87;47.64;;
186;Laerm;55473;48.800;9.002;2024-03-02T01:43:17;43.71;35.45;57.67;;
186;Laerm;55473;48.800;9.002;2024-03-02T01:45:43;46.28;36.22;62.45;;
186;Laerm;55473;48.800;9.002;2024-03-02T01:48:09;48.46;36.08;66.78;;
186;Laerm;55473;48.800;9.002;2024-03-02T01:50:36;39.10;35.51;46.99;;
186;Laerm;55473;48.800;9.002;2024-03-02T01:53:02;39.37;36.33;48.55;;
186;Laerm;55473;48.800;9.002;2024-03-02T01:55:31;39.32;36.15;47.34;;
186;Laerm;55473;48.800;9.002;2024-03-02T01:57:57;38.74;36.13;44.50;;
186;Laerm;55473;48.800;9.002;2024-03-02T02:00:23;38.19;35.07;57.78;;
186;Laerm;55473;48.800;9.002;2024-03-02T02:02:52;38.85;35.74;45.20;;
186;Laerm;55473;48.800;9.002;2024-03-02T02:05:18;38.72;35.85;44.73;;
186;Laerm;55473;48.800;9.002;2024-03-02T02:07:44;38.75;36.04;45.97;;
186;Laerm;55473;48.800;9.002;2024-03-02T02:10:10;38.89;35.77;46.19;;
186;Laerm;55473;48.800;9.002;2024-03-02T02:12:37;38.95;35.59;46.74;;
186;Laerm;55473;48.800;9.002;2024-03-02T02:15:21;39.35;35.82;48.63;;
186;Laerm;55473;48.800;9.002;2024-03-02T02:17:46;44.47;35.74;56.00;;
186;Laerm;55473;48.800;9.002;2024-03-02T02:20:12;39.78;35.94;49.53;;
186;Laerm;55473;48.800;9.002;2024-03-02T02:22:38;38.70;35.43;45.46;;
186;Laerm;55473;48.800;9.002;2024-03-02T02:25:04;38.40;35.38;45.00;;
186;Laerm;55473;48.800;9.002;2024-03-02T02:27:30;38.86;35.43;61.61;;
186;Laerm;55473;48.800;9.002;2024-03-02T02:29:56;38.52;35.39;46.44;;
186;Laerm;55473;48.800;9.002;2024-03-02T02:32:22;38.61;35.96;44.20;;
186;Laerm;55473;48.800;9.002;2024-03-02T02:34:52;38.65;35.85;44.91;;
186;Laerm;55473;48.800;9.002;2024-03-02T02:37:18;38.94;35.91;46.47;;
186;Laerm;55473;48.800;9.002;2024-03-02T02:39:44;38.26;35.21;44.74;;
186;Laerm;55473;48.800;9.002;2024-03-02T02:42:12;38.63;35.06;47.28;;
186;Laerm;55473;48.800;9.002;2024-03-02T02:44:38;44.57;35.04;56.44;;
186;Laerm;55473;48.800;9.002;2024-03-02T02:47:04;39.73;35.47;55.73;;
186;Laerm;55473;48.800;9.002;2024-03-02T02:49:31;42.48;35.65;56.05;;
186;Laerm;55473;48.800;9.002;2024-03-02T02:51:57;41.71;35.97;56.00;;
186;Laerm;55473;48.800;9.002;2024-03-02T02:54:22;41.58;35.74;53.22;;
186;Laerm;55473;48.800;9.002;2024-03-02T02:56:48;40.67;36.12;51.89;;
186;Laerm;55473;48.800;9.002;2024-03-02T02:59:14;41.33;36.21;53.88;;
186;Laerm;55473;48.800;9.002;2024-03-02T03:01:40;41.68;35.49;54.54;;
186;Laerm;55473;48.800;9.002;2024-03-02T03:04:06;40.84;35.89;54.07;;
186;Laerm;55473;48.800;9.002;2024-03-02T03:06:31;39.69;35.66;52.03;;
186;Laerm;55473;48.800;9.002;2024-03-02T03:08:57;40.43;35.46;52.62;;
186;Laerm;55473;48.800;9.002;2024-03-02T03:11:23;41.54;35.79;50.89;;
186;Laerm;55473;48.800;9.002;2024-03-02T03:13:53;40.24;35.10;51.98;;
186;Laerm;55473;48.800;9.002;2024-03-02T03:16:20;40.93;35.78;55.07;;
186;Laerm;55473;48.800;9.002;2024-03-02T03:18:45;44.01;35.63;56.63;;
186;Laerm;55473;48.800;9.002;2024-03-02T03:21:11;40.60;35.42;54.04;;
186;Laerm;55473;48.800;9.002;2024-03-02T03:23:37;41.36;35.49;53.24;;
186;Laerm;55473;48.800;9.002;2024-03-02T03:26:03;40.86;35.59;52.48;;
186;Laerm;55473;48.800;9.002;2024-03-02T03:28:30;40.97;35.48;53.80;;
186;Laerm;55473;48.800;9.002;2024-03-02T03:30:55;41.12;35.38;51.95;;
186;Laerm;55473;48.800;9.002;2024-03-02T03:33:21;41.79;35.84;51.71;;
186;Laerm;55473;48.800;9.002;2024-03-02T03:35:47;44.38;41.49;52.48;;
186;Laerm;55473;48.800;9.002;2024-03-02T03:38:16;44.97;41.75;52.46;;
186;Laerm;55473;48.800;9.002;2024-03-02T03:40:42;44.18;35.78;57.05;;
186;Laerm;55473;48.800;9.002;2024-03-02T03:43:09;44.13;36.22;55.98;;
186;Laerm;55473;48.800;9.002;2024-03-02T03:45:35;43.93;36.46;55.63;;
186;Laerm;55473;48.800;9.002;2024-03-02T03:48:02;41.03;35.70;53.06;;
186;Laerm;55473;48.800;9.002;2024-03-02T03:50:28;43.72;37.39;54.07;;
186;Laerm;55473;48.800;9.002;2024-03-02T03:52:54;45.36;36.34;64.26;;
186;Laerm;55473;48.800;9.002;2024-03-02T03:55:20;40.92;35.80;51.23;;
186;Laerm;55473;48.800;9.002;2024-03-02T03:57:46;40.93;36.15;51.88;;
186;Laerm;55473;48.800;9.002;2024-03-02T04:00:12;39.96;35.40;50.83;;
186;Laerm;55473;48.800;9.002;2024-03-02T04:02:38;41.05;35.85;53.05;;
186;Laerm;55473;48.800;9.002;2024-03-02T04:05:05;41.85;36.09;54.49;;
186;Laerm;55473;48.800;9.002;2024-03-02T04:07:36;41.42;35.61;57.78;;
186;Laerm;55473;48.800;9.002;2024-03-02T04:10:08;41.96;35.69;52.20;;
186;Laerm;55473;48.800;9.002;2024-03-02T04:12:36;42.14;36.46;53.46;;
186;Laerm;55473;48.800;9.002;2024-03-02T04:15:04;41.92;36.63;53.97;;
186;Laerm;55473;48.800;9.002;2024-03-02T04:17:33;46.02;36.36;59.98;;
186;Laerm;55473;48.800;9.002;2024-03-02T04:20:00;42.30;35.90;58.82;;
186;Laerm;55473;48.800;9.002;2024-03-02T04:22:27;41.97;35.72;54.27;;
186;Laerm;55473;48.800;9.002;2024-03-02T04:24:53;42.98;35.84;54.98;;
186;Laerm;55473;48.800;9.002;2024-03-02T04:27:20;46.33;35.96;61.53;;
186;Laerm;55473;48.800;9.002;2024-03-02T04:29:45;52.11;36.06;67.11;;
186;Laerm;55473;48.800;9.002;2024-03-02T04:32:11;51.62;36.38;66.33;;
186;Laerm;55473;48.800;9.002;2024-03-02T04:34:37;51.33;36.11;68.17;;
186;Laerm;55473;48.800;9.002;2024-03-02T04:37:03;51.69;36.72;68.97;;
186;Laerm;55473;48.800;9.002;2024-03-02T04:39:29;52.43;36.23;69.42;;
186;Laerm;55473;48.800;9.002;2024-03-02T04:41:58;52.39;37.14;69.11;;
186;Laerm;55473;48.800;9.002;2024-03-02T04:44:24;49.72;37.62;68.27;;
186;Laerm;55473;48.800;9.002;2024-03-02T04:46:50;52.61;37.86;70.24;;
186;Laerm;55473;48.800;9.002;2024-03-02T04:49:19;52.39;38.35;68.03;;
186;Laerm;55473;48.800;9.002;2024-03-02T04:51:45;51.79;38.03;66.45;;
186;Laerm;55473;48.800;9.002;2024-03-02T04:54:11;52.23;38.02;67.04;;
186;Laerm;55473;48.800;9.002;2024-03-02T04:56:37;51.90;37.72;66.45;;
186;Laerm;55473;48.800;9.002;2024-03-02T04:59:10;51.47;37.29;68.80;;
186;Laerm;55473;48.800;9.002;2024-03-02T05:01:36;47.99;38.02;64.57;;
186;Laerm;55473;48.800;9.002;2024-03-02T05:04:02;53.10;38.72;70.10;;
186;Laerm;55473;48.800;9.002;2024-03-02T05:06:28;55.20;37.69;69.71;;
186;Laerm;55473;48.800;9.002;2024-03-02T05:08:58;56.60;38.95;70.50;;
186;Laerm;55473;48.800;9.002;2024-03-02T05:11:24;56.00;39.22;71.26;;
186;Laerm;55473;48.800;9.002;2024-03-02T05:14:05;56.72;39.09;70.52;;
186;Laerm;55473;48.800;9.002;2024-03-02T05:16:35;56.10;39.90;70.38;;
186;Laerm;55473;48.800;9.002;2024-03-02T05:19:04;56.73;41.78;71.43;;
186;Laerm;55473;48.800;9.002;2024-03-02T05:21:33;53.10;38.94;69.38;;
186;Laerm;55473;48.800;9.002;2024-03-02T05:24:00;48.52;39.61;64.96;;
186;Laerm;55473;48.800;9.002;2024-03-02T05:26:26;45.79;38.80;57.61;;
186;Laerm;55473;48.800;9.002;2024-03-02T05:28:52;46.02;39.44;68.08;;
186;Laerm;55473;48.800;9.002;2024-03-02T05:31:17;50.20;39.43;71.19;;
186;Laerm;55473;48.800;9.002;2024-03-02T05:33:44;53.78;39.82;72.57;;
186;Laerm;55473;48.800;9.002;2024-03-02T05:36:09;45.63;39.17;57.53;;
186;Laerm;55473;48.800;9.002;2024-03-02T05:38:35;44.58;38.48;60.69;;
186;Laerm;55473;48.800;9.002;2024-03-02T05:41:02;45.30;39.81;57.67;;
186;Laerm;55473;48.800;9.002;2024-03-02T05:43:28;45.31;39.96;55.00;;
186;Laerm;55473;48.800;9.002;2024-03-02T05:45:54;45.35;40.57;55.24;;
186;Laerm;55473;48.800;9.002;2024-03-02T05:48:20;47.09;39.81;57.20;;
186;Laerm;55473;48.800;9.002;2024-03-02T05:50:46;45.09;39.67;55.59;;
186;Laerm;55473;48.800;9.002;2024-03-02T05:53:12;43.20;38.54;57.67;;
186;Laerm;55473;48.800;9.002;2024-03-02T05:55:41;45.31;38.86;59.64;;
186;Laerm;55473;48.800;9.002;2024-03-02T05:58:07;43.99;38.87;55.91;;
186;Laerm;55473;48.800;9.002;2024-03-02T06:00:53;43.91;38.87;56.86;;
186;Laerm;55473;48.800;9.002;2024-03-02T06:03:20;46.06;39.44;57.38;;
186;Laerm;55473;48.800;9.002;2024-03-02T06:05:46;48.97;40.91;64.96;;
186;Laerm;55473;48.800;9.002;2024-03-02T06:08:14;45.19;39.31;61.83;;
186;Laerm;55473;48.800;9.002;2024-03-02T06:10:40;46.77;40.20;57.04;;
186;Laerm;55473;48.800;9.002;2024-03-02T06:13:06;46.56;39.65;66.03;;
186;Laerm;55473;48.800;9.002;2024-03-02T06:15:32;47.52;40.55;58.54;;
186;Laerm;55473;48.800;9.002;2024-03-02T06:17:58;48.37;40.40;64.34;;
186;Laerm;55473;48.800;9.002;2024-03-02T06:20:24;49.58;40.16;63.87;;
186;Laerm;55473;48.800;9.002;2024-03-02T06:22:52;52.58;40.42;68.85;;
186;Laerm;55473;48.800;9.002;2024-03-02T06:25:18;49.64;40.02;67.88;;
186;Laerm;55473;48.800;9.002;2024-03-02T06:27:44;48.91;40.42;66.88;;
186;Laerm;55473;48.800;9.002;2024-03-02T06:30:10;44.49;39.58;53.71;;
186;Laerm;55473;48.800;9.002;2024-03-02T06:32:36;46.66;39.52;71.27;;
186;Laerm;55473;48.800;9.002;2024-03-02T06:35:02;43.05;39.51;49.63;;
186;Laerm;55473;48.800;9.002;2024-03-02T06:37:30;45.40;39.67;58.19;;
186;Laerm;55473;48.800;9.002;2024-03-02T06:39:56;45.74;39.81;62.41;;
186;Laerm;55473;48.800;9.002;2024-03-02T06:42:22;47.27;40.41;64.46;;
186;Laerm;55473;48.800;9.002;2024-03-02T06:44:47;48.11;41.56;60.60;;
186;Laerm;55473;48.800;9.002;2024-03-02T06:47:13;47.99;41.07;70.82;;
186;Laerm;55473;48.800;9.002;2024-03-02T06:49:42;49.76;41.10;65.94;;
186;Laerm;55473;48.800;9.002;2024-03-02T06:52:08;48.10;41.59;64.98;;
186;Laerm;55473;48.800;9.002;2024-03-02T06:54:33;47.11;40.39;60.41;;
186;Laerm;55473;48.800;9.002;2024-03-02T06:57:00;47.78;40.03;61.73;;
186;Laerm;55473;48.800;9.002;2024-03-02T06:59:26;62.77;40.55;91.25;;
186;Laerm;55473;48.800;9.002;2024-03-02T07:01:52;54.27;40.90;71.18;;
186;Laerm;55473;48.800;9.002;2024-03-02T07:04:18;51.94;40.29;69.11;;
186;Laerm;55473;48.800;9.002;2024-03-02T07:06:46;47.61;39.83;65.82;;
186;Laerm;55473;48.800;9.002;2024-03-02T07:09:12;46.50;38.89;65.90;;
186;Laerm;55473;48.800;9.002;2024-03-02T07:11:38;45.49;40.11;62.66;;
186;Laerm;55473;48.800;9.002;2024-03-02T07:14:04;47.69;40.25;64.78;;
186;Laerm;55473;48.800;9.002;2024-03-02T07:16:30;45.88;40.69;63.94;;
186;Laerm;55473;48.800;9.002;2024-03-02T07:18:59;48.16;41.36;59.31;;
186;Laerm;55473;48.800;9.002;2024-03-02T07:21:27;47.86;40.48;68.14;;
186;Laerm;55473;48.800;9.002;2024-03-02T07:23:53;51.91;39.84;75.29;;
186;Laerm;55473;48.800;9.002;2024-03-02T07:26:19;50.78;40.46;65.58;;
186;Laerm;55473;48.800;9.002;2024-03-02T07:28:46;49.65;40.95;70.50;;
186;Laerm;55473;48.800;9.002;2024-03-02T07:31:13;48.34;40.51;66.51;;
186;Laerm;55473;48.800;9.002;2024-03-02T07:33:39;48.29;41.50;64.40;;
186;Laerm;55473;48.800;9.002;2024-03-02T07:36:05;49.01;40.20;66.16;;
186;Laerm;55473;48.800;9.002;2024-03-02T07:38:32;45.77;39.73;59.30;;
186;Laerm;55473;48.800;9.002;2024-03-02T07:41:00;46.59;40.30;59.37;;
186;Laerm;55473;48.800;9.002;2024-03-02T07:43:26;48.82;40.98;62.77;;
186;Laerm;55473;48.800;9.002;2024-03-02T07:45:52;48.96;39.60;61.03;;
186;Laerm;55473;48.800;9.002;2024-03-02T07:48:18;49.39;41.01;61.30;;
186;Laerm;55473;48.800;9.002;2024-03-02T07:50:44;49.68;41.48;69.36;;
186;Laerm;55473;48.800;9.002;2024-03-02T07:53:10;46.80;40.38;67.22;;
186;Laerm;55473;48.800;9.002;2024-03-02T07:55:36;46.98;39.66;62.35;;
186;Laerm;55473;48.800;9.002;2024-03-02T07:58:01;47.31;40.42;61.62;;
186;Laerm;55473;48.800;9.002;2024-03-02T08:00:27;51.60;41.79;68.24;;
186;Laerm;55473;48.800;9.002;2024-03-02T08:02:55;50.10;41.51;62.87;;
186;Laerm;55473;48.800;9.002;2024-03-02T08:05:25;48.04;41.16;61.09;;
186;Laerm;55473;48.800;9.002;2024-03-02T08:07:50;47.36;40.83;67.61;;
186;Laerm;55473;48.800;9.002;2024-03-02T08:10:20;47.35;40.61;66.39;;
186;Laerm;55473;48.800;9.002;2024-03-02T08:12:46;46.77;40.76;63.21;;
186;Laerm;55473;48.800;9.002;2024-03-02T08:15:11;46.96;41.25;55.60;;
186;Laerm;55473;48.800;9.002;2024-03-02T08:17:40;48.27;40.04;59.43;;
186;Laerm;55473;48.800;9.002;2024-03-02T08:20:14;46.35;39.86;57.05;;
186;Laerm;55473;48.800;9.002;2024-03-02T08:22:40;46.08;38.70;62.24;;
186;Laerm;55473;48.800;9.002;2024-03-02T08:25:07;47.47;39.84;68.02;;
186;Laerm;55473;48.800;9.002;2024-03-02T08:27:33;46.33;39.14;65.44;;
186;Laerm;55473;48.800;9.002;2024-03-02T08:29:59;52.59;38.07;70.51;;
186;Laerm;55473;48.800;9.002;2024-03-02T08:32:25;45.47;38.44;59.19;;
186;Laerm;55473;48.800;9.002;2024-03-02T08:34:51;47.71;39.22;63.66;;
186;Laerm;55473;48.800;9.002;2024-03-02T08:37:17;51.57;38.46;66.31;;
186;Laerm;55473;48.800;9.002;2024-03-02T08:39:43;47.80;38.88;68.31;;
186;Laerm;55473;48.800;9.002;2024-03-02T08:42:10;45.61;38.45;59.09;;
186;Laerm;55473;48.800;9.002;2024-03-02T08:44:37;47.19;40.67;63.27;;
186;Laerm;55473;48.800;9.002;2024-03-02T08:47:03;46.30;40.15;57.88;;
186;Laerm;55473;48.800;9.002;2024-03-02T08:49:29;44.52;39.12;56.31;;
186;Laerm;55473;48.800;9.002;2024-03-02T08:51:55;44.10;39.02;64.14;;
186;Laerm;55473;48.800;9.002;2024-03-02T08:54:21;47.34;37.99;62.68;;
186;Laerm;55473;48.800;9.002;2024-03-02T08:56:49;45.15;40.10;61.82;;
186;Laerm;55473;48.800;9.002;2024-03-02T08:59:16;46.25;38.40;59.76;;
186;Laerm;55473;48.800;9.002;2024-03-02T09:01:42;45.37;38.30;55.40;;
186;Laerm;55473;48.800;9.002;2024-03-02T09:04:08;48.67;38.86;66.08;;
186;Laerm;55473;48.800;9.002;2024-03-02T09:06:35;52.51;39.23;73.33;;
186;Laerm;55473;48.800;9.002;2024-03-02T09:09:00;44.38;39.19;55.85;;
186;Laerm;55473;48.800;9.002;2024-03-02T09:11:27;42.96;37.16;56.33;;
186;Laerm;55473;48.800;9.002;2024-03-02T09:13:53;46.97;38.10;58.23;;
186;Laerm;55473;48.800;9.002;2024-03-02T09:16:19;49.35;39.20;63.78;;
186;Laerm;55473;48.800;9.002;2024-03-02T09:18:48;60.67;44.03;80.30;;
186;Laerm;55473;48.800;9.002;2024-03-02T09:21:14;46.50;39.42;69.91;;
186;Laerm;55473;48.800;9.002;2024-03-02T09:23:40;44.74;38.20;58.37;;
186;Laerm;55473;48.800;9.002;2024-03-02T09:26:06;43.36;37.73;54.90;;
186;Laerm;55473;48.800;9.002;2024-03-02T09:28:32;44.38;37.25;56.34;;
186;Laerm;55473;48.800;9.002;2024-03-02T09:30:58;46.27;38.29;64.51;;
186;Laerm;55473;48.800;9.002;2024-03-02T09:33:26;45.66;37.73;62.56;;
186;Laerm;55473;48.800;9.002;2024-03-02T09:35:52;46.79;37.69;62.83;;
186;Laerm;55473;48.800;9.002;2024-03-02T09:38:18;45.42;36.29;64.35;;
186;Laerm;55473;48.800;9.002;2024-03-02T09:40:44;46.06;37.32;64.91;;
186;Laerm;55473;48.800;9.002;2024-03-02T09:43:10;46.83;36.76;66.98;;
186;Laerm;55473;48.800;9.002;2024-03-02T09:45:36;47.50;38.59;57.58;;
186;Laerm;55473;48.800;9.002;2024-03-02T09:48:02;48.01;37.01;58.35;;
186;Laerm;55473;48.800;9.002;2024-03-02T09:50:28;46.41;38.33;60.46;;
186;Laerm;55473;48.800;9.002;2024-03-02T09:52:54;43.33;38.24;59.04;;
186;Laerm;55473;48.800;9.002;2024-03-02T09:55:20;45.60;37.65;63.54;;
186;Laerm;55473;48.800;9.002;2024-03-02T09:57:46;47.85;38.68;63.57;;
186;Laerm;55473;48.800;9.002;2024-03-02T10:00:14;47.90;40.45;64.62;;
186;Laerm;55473;48.800;9.002;2024-03-02T10:02:41;48.57;42.28;57.18;;
186;Laerm;55473;48.800;9.002;2024-03-02T10:05:10;47.71;42.55;59.58;;
186;Laerm;55473;48.800;9.002;2024-03-02T10:07:37;51.31;41.19;61.76;;
186;Laerm;55473;48.800;9.002;2024-03-02T10:10:14;47.49;42.55;60.62;;
186;Laerm;55473;48.800;9.002;2024-03-02T10:12:40;48.62;42.60;62.07;;
186;Laerm;55473;48.800;9.002;2024-03-02T10:15:07;47.14;41.89;57.49;;
186;Laerm;55473;48.800;9.002;2024-03-02T10:17:34;48.59;39.12;58.23;;
186;Laerm;55473;48.800;9.002;2024-03-02T10:20:24;48.93;41.73;67.52;;
186;Laerm;55473;48.800;9.002;2024-03-02T10:22:50;45.23;41.97;52.47;;
186;Laerm;55473;48.800;9.002;2024-03-02T10:25:31;46.20;42.45;56.60;;
186;Laerm;55473;48.800;9.002;2024-03-02T10:28:00;45.87;41.99;59.50;;
186;Laerm;55473;48.800;9.002;2024-03-02T10:30:27;48.43;42.74;62.72;;
186;Laerm;55473;48.800;9.002;2024-03-02T10:32:56;48.17;37.72;61.99;;
186;Laerm;55473;48.800;9.002;2024-03-02T10:35:23;44.36;37.58;59.54;;
186;Laerm;55473;48.800;9.002;2024-03-02T10:37:52;49.93;39.08;64.81;;
186;Laerm;55473;48.800;9.002;2024-03-02T10:40:22;47.47;42.53;62.62;;
186;Laerm;55473;48.800;9.002;2024-03-02T10:42:50;47.86;42.72;61.95;;
186;Laerm;55473;48.800;9.002;2024-03-02T10:45:20;48.35;43.96;61.01;;
186;Laerm;55473;48.800;9.002;2024-03-02T10:47:50;49.70;43.67;62.53;;
186;Laerm;55473;48.800;9.002;2024-03-02T10:50:16;46.37;41.90;61.50;;
186;Laerm;55473;48.800;9.002;2024-03-02T10:52:43;47.96;42.73;66.50;;
186;Laerm;55473;48.800;9.002;2024-03-02T10:55:12;48.35;42.22;69.22;;
186;Laerm;55473;48.800;9.002;2024-03-02T10:57:53;48.43;43.44;72.49;;
186;Laerm;55473;48.800;9.002;2024-03-02T11:00:20;49.40;43.22;65.38;;
186;Laerm;55473;48.800;9.002;2024-03-02T11:02:56;50.63;43.34;59.25;;
186;Laerm;55473;48.800;9.002;2024-03-02T11:05:33;51.19;44.28;64.73;;
186;Laerm;55473;48.800;9.002;2024-03-02T11:08:12;46.78;42.67;56.69;;
186;Laerm;55473;48.800;9.002;2024-03-02T11:10:51;45.16;38.38;67.54;;
186;Laerm;55473;48.800;9.002;2024-03-02T11:13:31;45.88;37.29;57.12;;
186;Laerm;55473;48.800;9.002;2024-03-02T11:16:37;46.04;38.12;63.85;;
186;Laerm;55473;48.800;9.002;2024-03-02T11:19:15;45.92;37.54;61.54;;
186;Laerm;55473;48.800;9.002;2024-03-02T11:21:43;42.65;37.78;51.35;;
186;Laerm;55473;48.800;9.002;2024-03-02T11:26:53;42.88;36.48;60.53;;
186;Laerm;55473;48.800;9.002;2024-03-02T11:32:21;45.48;40.58;59.64;;
186;Laerm;55473;48.800;9.002;2024-03-02T11:34:50;46.27;36.10;59.30;;
186;Laerm;55473;48.800;9.002;2024-03-02T11:37:19;43.52;35.65;59.13;;
186;Laerm;55473;48.800;9.002;2024-03-02T11:39:51;48.19;41.52;69.54;;
186;Laerm;55473;48.800;9.002;2024-03-02T11:42:17;47.02;41.95;61.87;;
186;Laerm;55473;48.800;9.002;2024-03-02T11:44:48;49.18;41.93;60.96;;
186;Laerm;55473;48.800;9.002;2024-03-02T11:47:16;47.57;42.08;65.29;;
186;Laerm;55473;48.800;9.002;2024-03-02T11:49:51;47.13;41.43;68.50;;
186;Laerm;55473;48.800;9.002;2024-03-02T11:52:20;46.13;41.94;58.40;;
186;Laerm;55473;48.800;9.002;2024-03-02T11:54:48;46.75;40.13;65.79;;
186;Laerm;55473;48.800;9.002;2024-03-02T11:57:17;45.53;40.83;52.77;;
186;Laerm;55473;48.800;9.002;2024-03-02T11:59:46;46.76;41.70;62.01;;
186;Laerm;55473;48.800;9.002;2024-03-02T12:02:23;44.72;36.54;64.61;;
186;Laerm;55473;48.800;9.002;2024-03-02T12:04:50;50.67;39.14;66.18;;
186;Laerm;55473;48.800;9.002;2024-03-02T12:07:23;48.17;37.36;63.61;;
186;Laerm;55473;48.800;9.002;2024-03-02T12:09:59;43.04;37.04;53.42;;
186;Laerm;55473;48.800;9.002;2024-03-02T12:12:26;44.00;37.25;54.28;;
186;Laerm;55473;48.800;9.002;2024-03-02T12:14:54;46.03;37.98;56.52;;
186;Laerm;55473;48.800;9.002;2024-03-02T12:17:22;46.55;37.54;57.96;;
186;Laerm;55473;48.800;9.002;2024-03-02T12:19:48;42.75;38.39;53.66;;
186;Laerm;55473;48.800;9.002;2024-03-02T12:22:14;42.06;37.74;50.96;;
186;Laerm;55473;48.800;9.002;2024-03-02T12:24:41;41.47;36.68;49.91;;
186;Laerm;55473;48.800;9.002;2024-03-02T12:27:12;43.57;36.10;56.64;;
186;Laerm;55473;48.800;9.002;2024-03-02T12:29:38;47.14;40.76;62.35;;
186;Laerm;55473;48.800;9.002;2024-03-02T12:32:05;45.78;37.47;57.56;;
186;Laerm;55473;48.800;9.002;2024-03-02T12:34:32;42.43;36.25;57.31;;
186;Laerm;55473;48.800;9.002;2024-03-02T12:36:58;41.20;36.56;56.71;;
186;Laerm;55473;48.800;9.002;2024-03-02T12:39:24;41.69;36.00;57.53;;
186;Laerm;55473;48.800;9.002;2024-03-02T12:41:51;50.16;37.68;65.35;;
186;Laerm;55473;48.800;9.002;2024-03-02T12:44:20;45.76;37.35;56.85;;
186;Laerm;55473;48.800;9.002;2024-03-02T12:46:47;46.73;37.34;61.01;;
186;Laerm;55473;48.800;9.002;2024-03-02T12:49:15;51.52;38.12;73.02;;
186;Laerm;55473;48.800;9.002;2024-03-02T12:51:46;43.51;38.61;53.88;;
186;Laerm;55473;48.800;9.002;2024-03-02T12:54:17;44.62;41.04;56.23;;
186;Laerm;55473;48.800;9.002;2024-03-02T12:56:43;45.51;41.40;59.32;;
186;Laerm;55473;48.800;9.002;2024-03-02T12:59:20;47.95;39.90;65.98;;
186;Laerm;55473;48.800;9.002;2024-03-02T13:01:56;47.39;40.83;59.92;;
186;Laerm;55473;48.800;9.002;2024-03-02T13:04:27;46.19;41.03;63.69;;
186;Laerm;55473;48.800;9.002;2024-03-02T13:06:55;43.34;36.84;54.19;;
186;Laerm;55473;48.800;9.002;2024-03-02T13:09:24;41.34;35.26;60.61;;
186;Laerm;55473;48.800;9.002;2024-03-02T13:11:51;42.82;36.45;59.05;;
186;Laerm;55473;48.800;9.002;2024-03-02T13:14:17;43.70;37.14;62.29;;
186;Laerm;55473;48.800;9.002;2024-03-02T13:16:44;47.51;38.70;58.21;;
186;Laerm;55473;48.800;9.002;2024-03-02T13:19:12;49.54;37.74;74.87;;
186;Laerm;55473;48.800;9.002;2024-03-02T13:21:38;42.42;36.11;58.29;;
186;Laerm;55473;48.800;9.002;2024-03-02T13:24:05;41.76;36.06;56.07;;
186;Laerm;55473;48.800;9.002;2024-03-02T13:26:31;42.71;37.79;54.52;;
186;Laerm;55473;48.800;9.002;2024-03-02T13:29:00;44.28;36.21;55.31;;
186;Laerm;55473;48.800;9.002;2024-03-02T13:31:26;45.81;37.38;61.77;;
186;Laerm;55473;48.800;9.002;2024-03-02T13:33:52;48.13;37.61;63.55;;
186;Laerm;55473;48.800;9.002;2024-03-02T13:36:18;48.73;38.23;66.67;;
186;Laerm;55473;48.800;9.002;2024-03-02T13:38:45;50.54;37.39;67.75;;
186;Laerm;55473;48.800;9.002;2024-03-02T13:41:10;46.79;36.61;69.60;;
186;Laerm;55473;48.800;9.002;2024-03-02T13:43:37;44.44;37.52;57.32;;
186;Laerm;55473;48.800;9.002;2024-03-02T13:46:07;46.34;38.30;63.65;;
186;Laerm;55473;48.800;9.002;2024-03-02T13:48:33;45.46;36.21;61.48;;
186;Laerm;55473;48.800;9.002;2024-03-02T13:50:59;44.62;37.23;62.79;;
186;Laerm;55473;48.800;9.002;2024-03-02T13:53:25;41.82;37.03;53.93;;
186;Laerm;55473;48.800;9.002;2024-03-02T13:55:51;42.73;37.35;53.35;;
186;Laerm;55473;48.800;9.002;2024-03-02T13:58:16;44.51;37.73;54.99;;
186;Laerm;55473;48.800;9.002;2024-03-02T14:00:45;44.94;37.36;60.11;;
186;Laerm;55473;48.800;9.002;2024-03-02T14:03:11;46.21;39.74;57.26;;
186;Laerm;55473;48.800;9.002;2024-03-02T14:05:37;43.73;38.09;59.23;;
186;Laerm;55473;48.800;9.002;2024-03-02T14:08:03;43.37;38.32;55.64;;
186;Laerm;55473;48.800;9.002;2024-03-02T14:10:29;41.98;37.30;52.83;;
186;Laerm;55473;48.800;9.002;2024-03-02T14:12:55;43.09;37.22;54.52;;
186;Laerm;55473;48.800;9.002;2024-03-02T14:15:22;45.29;37.87;54.06;;
186;Laerm;55473;48.800;9.002;2024-03-02T14:17:49;43.08;36.52;67.84;;
186;Laerm;55473;48.800;9.002;2024-03-02T14:20:15;46.08;36.50;69.25;;